Time;durP1;ratioP1;P1;durP2;ratioP2;P2;SDS_P1;SDS_P2;PMS_P1;PMS_P2;Temp;Humidity;BMP_temperature;BMP_pressure;BME280_temperature;BME280_humidity;BME280_pressure;Samples;Min_cycle;Max_cycle;Signal;HPM_P1;HPM_P2
2022/01/28 00:01:04;;;;;;;;;;;;;;;;;;7389899;19;1198;-47
2022/01/28 00:03:33;;;;;;;;;;;;;;;;;;7389139;19;946;-46
2022/01/28 00:06:01;;;;;;;;;;;;;;;;;;7389306;19;1057;-46
2022/01/28 00:08:28;;;;;;;;;;;;;;;;;;7389878;19;1229;-45
2022/01/28 00:10:55;;;;;;;;;;;;;;;;;;7390661;19;1156;-47
2022/01/28 00:13:36;;;;;;;;;;;;;;;;;;7388984;19;1839;-47
2022/01/28 00:16:41;;;;;;;;;;;;;;;;;;7388531;19;931;-45
2022/01/28 00:19:37;;;;;;;;;;;;;;;;;;7388752;19;1043;-44
2022/01/28 00:38:30;;;;;;;;;;;;;;;;;;7386916;19;947;-43
2022/01/28 00:40:57;;;;;;;;;;;;;;;;;;7388678;19;880;-45
2022/01/28 00:43:24;;;;;;;;;;;;;;;;;;7386719;19;1105;-44
2022/01/28 00:45:52;;;;;;;;;;;;;;;;;;7388413;19;966;-48
2022/01/28 00:48:19;;;;;;;;;;;;;;;;;;7388357;19;935;-45
2022/01/28 00:50:46;;;;;;;;;;;;;;;;;;7388417;19;954;-46
2022/01/28 00:53:13;;;;;;;;;;;;;;;;;;7386367;19;1857;-47
2022/01/28 00:55:40;;;;;;;;;;;;;;;;;;7387984;19;958;-44
2022/01/28 00:58:08;;;;;;;;;;;;;;;;;;7387669;19;1059;-44
2022/01/28 01:00:35;;;;;;;;;;;;;;;;;;7387209;19;914;-48
2022/01/28 01:03:02;;;;;;;;;;;;;;;;;;7388445;19;851;-48
2022/01/28 01:05:32;;;;;;;;;;;;;;;;;;7394856;19;858;-46
2022/01/28 01:08:03;;;;;;;;;;;;;;;;;;7395644;19;895;-45
2022/01/28 01:10:31;;;;;;;;;;;;;;;;;;7395017;19;1184;-47
2022/01/28 01:12:58;;;;;;;;;;;;;;;;;;7394829;19;891;-45
2022/01/28 01:15:31;;;;;;;;;;;;;;;;;;7392753;19;1857;-47
2022/01/28 01:18:14;;;;;;;;;;;;;;;;;;7394980;19;961;-44
2022/01/28 01:23:22;;;;;;;;;;;;;;;;;;7394452;19;925;-46
2022/01/28 01:28:33;;;;;;;;;;;;;;;;;;7394384;19;951;-49
2022/01/28 01:31:03;;;;;;;;;;;;;;;;;;7394322;19;848;-45
2022/01/28 01:33:35;;;;;;;;;;;;;;;;;;7394382;19;1818;-46
2022/01/28 01:36:03;;;;;;;;;;;;;;;;;;7394174;19;939;-51
2022/01/28 01:38:34;;;;;;;;;;;;;;;;;;7394216;19;934;-46
2022/01/28 01:41:03;;;;;;;;;;;;;;;;;;7392138;19;951;-46
2022/01/28 01:43:53;;;;;;;;;;;;;;;;;;7392746;19;1034;-44
2022/01/28 01:52:05;;;;;;;;;;;;;;;;;;7393696;19;949;-48
2022/01/28 01:54:34;;;;;;;;;;;;;;;;;;7392361;19;1845;-49
2022/01/28 01:57:02;;;;;;;;;;;;;;;;;;7393335;19;1021;-48
2022/01/28 01:59:29;;;;;;;;;;;;;;;;;;7392471;19;894;-46
2022/01/28 02:01:57;;;;;;;;;;;;;;;;;;7393053;19;922;-45
2022/01/28 02:04:24;;;;;;;;;;;;;;;;;;7392652;19;990;-52
2022/01/28 02:06:52;;;;;;;;;;;;;;;;;;7390199;19;1006;-45
2022/01/28 02:09:19;;;;;;;;;;;;;;;;;;7393308;19;1185;-47
2022/01/28 02:11:46;;;;;;;;;;;;;;;;;;7395747;19;1176;-48
2022/01/28 02:14:14;;;;;;;;;;;;;;;;;;7390737;19;1843;-47
2022/01/28 02:16:41;;;;;;;;;;;;;;;;;;7392030;19;847;-47
2022/01/28 02:19:08;;;;;;;;;;;;;;;;;;7392442;19;915;-48
2022/01/28 02:21:44;;;;;;;;;;;;;;;;;;7391399;19;1069;-47
2022/01/28 02:24:13;;;;;;;;;;;;;;;;;;7392531;19;914;-51
2022/01/28 02:26:41;;;;;;;;;;;;;;;;;;7391514;19;927;-46
2022/01/28 02:29:12;;;;;;;;;;;;;;;;;;7391869;19;863;-49
2022/01/28 02:31:40;;;;;;;;;;;;;;;;;;7391650;19;871;-44
2022/01/28 02:34:10;;;;;;;;;;;;;;;;;;7391789;19;1856;-48
2022/01/28 02:36:38;;;;;;;;;;;;;;;;;;7391666;19;939;-49
2022/01/28 02:39:06;;;;;;;;;;;;;;;;;;7391701;19;1283;-47
2022/01/28 02:41:38;;;;;;;;;;;;;;;;;;7389686;19;1116;-48
2022/01/28 02:44:18;;;;;;;;;;;;;;;;;;7389976;19;1036;-50
2022/01/28 02:46:58;;;;;;;;;;;;;;;;;;7389587;19;1033;-47
2022/01/28 02:49:28;;;;;;;;;;;;;;;;;;7392240;19;965;-51
2022/01/28 02:51:59;;;;;;;;;;;;;;;;;;7391789;19;930;-45
2022/01/28 02:54:26;;;;;;;;;;;;;;;;;;7391331;19;1861;-48
2022/01/28 02:57:00;;;;;;;;;;;;;;;;;;7391037;19;938;-44
2022/01/28 02:59:27;;;;;;;;;;;;;;;;;;7392035;19;912;-50
2022/01/28 03:01:54;;;;;;;;;;;;;;;;;;7389122;19;839;-49
2022/01/28 03:07:01;;;;;;;;;;;;;;;;;;7391283;19;946;-46
2022/01/28 03:09:46;;;;;;;;;;;;;;;;;;7391253;19;1001;-47
2022/01/28 03:12:18;;;;;;;;;;;;;;;;;;7394111;19;1125;-52
2022/01/28 03:20:31;;;;;;;;;;;;;;;;;;7391233;19;875;-46
2022/01/28 03:22:53;;;;;;;;;;;;;;;;;;7390539;19;1577;-48
2022/01/28 03:25:20;;;;;;;;;;;;;;;;;;7390039;19;870;-46
2022/01/28 03:27:54;;;;;;;;;;;;;;;;;;7388742;19;914;-44
2022/01/28 03:30:21;;;;;;;;;;;;;;;;;;7389493;19;1029;-50
2022/01/28 03:32:49;;;;;;;;;;;;;;;;;;7389632;19;885;-47
2022/01/28 03:35:26;;;;;;;;;;;;;;;;;;7389238;19;1842;-47
2022/01/28 03:37:59;;;;;;;;;;;;;;;;;;7390202;19;874;-51
2022/01/28 03:40:28;;;;;;;;;;;;;;;;;;7389934;19;946;-49
2022/01/28 03:42:55;;;;;;;;;;;;;;;;;;7389134;19;963;-46
2022/01/28 03:45:23;;;;;;;;;;;;;;;;;;7390209;19;963;-50
2022/01/28 03:47:50;;;;;;;;;;;;;;;;;;7389311;19;930;-45
2022/01/28 03:50:17;;;;;;;;;;;;;;;;;;7389603;19;1046;-50
2022/01/28 03:52:44;;;;;;;;;;;;;;;;;;7389114;19;874;-45
2022/01/28 03:55:11;;;;;;;;;;;;;;;;;;7388454;19;1842;-46
2022/01/28 03:57:39;;;;;;;;;;;;;;;;;;7388240;19;1202;-43
2022/01/28 04:00:06;;;;;;;;;;;;;;;;;;7389368;19;1026;-49
2022/01/28 04:02:37;;;;;;;;;;;;;;;;;;7389176;19;906;-46
2022/01/28 04:13:49;;;;;;;;;;;;;;;;;;7388955;19;918;-46
2022/01/28 04:16:30;;;;;;;;;;;;;;;;;;7386991;19;1854;-43
2022/01/28 04:19:01;;;;;;;;;;;;;;;;;;7389869;19;995;-43
2022/01/28 04:21:29;;;;;;;;;;;;;;;;;;7389230;19;1180;-44
2022/01/28 04:23:56;;;;;;;;;;;;;;;;;;7389477;19;1025;-52
2022/01/28 04:26:23;;;;;;;;;;;;;;;;;;7390133;19;2120;-45
2022/01/28 04:28:50;;;;;;;;;;;;;;;;;;7388811;19;820;-47
2022/01/28 04:31:18;;;;;;;;;;;;;;;;;;7388106;19;962;-44
2022/01/28 04:33:45;;;;;;;;;;;;;;;;;;7388824;19;996;-46
2022/01/28 04:36:15;;;;;;;;;;;;;;;;;;7386571;19;1839;-48
2022/01/28 04:42:05;;;;;;;;;;;;;;;;;;7394799;19;1359;-43
2022/01/28 04:44:11;;;;;;;;;;;;;;;;;;7392725;19;1606;-45
2022/01/28 04:46:55;;;;;;;;;;;;;;;;;;7395757;19;941;-43
2022/01/28 04:49:46;;;;;;;;;;;;;;;;;;7395373;19;958;-44
2022/01/28 05:14:20;;;;;;;;;;;;;;;;;;7395037;19;1132;-45
2022/01/28 05:26:59;;;;;;;;;;;;;;;;;;7393635;19;1034;-46
2022/01/28 05:29:26;;;;;;;;;;;;;;;;;;7394531;19;1247;-46
2022/01/28 05:31:54;;;;;;;;;;;;;;;;;;7394281;19;919;-48
2022/01/28 05:34:25;;;;;;;;;;;;;;;;;;7394696;19;946;-47
2022/01/28 05:36:53;;;;;;;;;;;;;;;;;;7393551;19;943;-43
2022/01/28 05:39:20;;;;;;;;;;;;;;;;;;7394487;19;869;-46
2022/01/28 05:41:47;;;;;;;;;;;;;;;;;;7394221;19;887;-44
2022/01/28 05:44:15;;;;;;;;;;;;;;;;;;7391311;19;1284;-46
2022/01/28 05:46:44;;;;;;;;;;;;;;;;;;7393856;19;950;-45
2022/01/28 05:49:13;;;;;;;;;;;;;;;;;;7390877;19;1223;-50
2022/01/28 05:51:40;;;;;;;;;;;;;;;;;;7393723;19;1049;-45
2022/01/28 05:54:08;;;;;;;;;;;;;;;;;;7393909;19;863;-44
2022/01/28 05:56:35;;;;;;;;;;;;;;;;;;7391773;19;1841;-47
2022/01/28 05:59:03;;;;;;;;;;;;;;;;;;7393787;19;1014;-44
2022/01/28 06:01:30;;;;;;;;;;;;;;;;;;7394183;19;895;-43
2022/01/28 06:03:57;;;;;;;;;;;;;;;;;;7368430;19;11601;-45
2022/01/28 06:06:24;;;;;;;;;;;;;;;;;;7391479;19;983;-49
2022/01/28 06:08:52;;;;;;;;;;;;;;;;;;7393491;19;831;-44
2022/01/28 06:11:20;;;;;;;;;;;;;;;;;;7395295;19;1116;-46
2022/01/28 06:13:47;;;;;;;;;;;;;;;;;;7392611;19;939;-49
2022/01/28 06:16:16;;;;;;;;;;;;;;;;;;7391360;19;1838;-48
2022/01/28 06:18:44;;;;;;;;;;;;;;;;;;7392469;19;927;-47
2022/01/28 06:21:11;;;;;;;;;;;;;;;;;;7392188;19;938;-44
2022/01/28 06:23:39;;;;;;;;;;;;;;;;;;7392137;19;974;-50
2022/01/28 06:26:06;;;;;;;;;;;;;;;;;;7392042;19;1053;-47
2022/01/28 06:28:33;;;;;;;;;;;;;;;;;;7391401;19;858;-45
2022/01/28 06:31:00;;;;;;;;;;;;;;;;;;7391142;19;1257;-45
2022/01/28 06:33:28;;;;;;;;;;;;;;;;;;7392372;19;965;-45
2022/01/28 06:35:55;;;;;;;;;;;;;;;;;;7390580;19;1849;-45
2022/01/28 06:38:22;;;;;;;;;;;;;;;;;;7386820;19;855;-45
2022/01/28 06:40:50;;;;;;;;;;;;;;;;;;7390923;19;1098;-52
2022/01/28 06:43:17;;;;;;;;;;;;;;;;;;7387875;19;1095;-43
2022/01/28 06:45:44;;;;;;;;;;;;;;;;;;7391907;19;925;-44
2022/01/28 06:48:12;;;;;;;;;;;;;;;;;;7391336;19;907;-44
2022/01/28 06:50:42;;;;;;;;;;;;;;;;;;7391562;19;938;-43
2022/01/28 06:53:10;;;;;;;;;;;;;;;;;;7391977;19;1011;-44
2022/01/28 06:55:37;;;;;;;;;;;;;;;;;;7390602;19;1858;-44
2022/01/28 06:58:05;;;;;;;;;;;;;;;;;;7391702;19;1037;-44
2022/01/28 07:00:37;;;;;;;;;;;;;;;;;;7389080;19;870;-43
2022/01/28 07:03:05;;;;;;;;;;;;;;;;;;7390865;19;914;-45
2022/01/28 07:05:32;;;;;;;;;;;;;;;;;;7391034;19;910;-44
2022/01/28 07:08:00;;;;;;;;;;;;;;;;;;7391920;19;860;-45
2022/01/28 07:10:27;;;;;;;;;;;;;;;;;;7391468;19;1022;-44
2022/01/28 07:12:54;;;;;;;;;;;;;;;;;;7390810;19;946;-44
2022/01/28 07:15:26;;;;;;;;;;;;;;;;;;7390374;19;1865;-49
2022/01/28 07:17:57;;;;;;;;;;;;;;;;;;7390755;19;904;-44
2022/01/28 07:20:25;;;;;;;;;;;;;;;;;;7390221;19;865;-44
2022/01/28 07:22:52;;;;;;;;;;;;;;;;;;7390935;19;879;-44
2022/01/28 07:25:19;;;;;;;;;;;;;;;;;;7390066;19;965;-43
2022/01/28 07:27:46;;;;;;;;;;;;;;;;;;7390881;19;891;-44
2022/01/28 07:30:14;;;;;;;;;;;;;;;;;;7390928;19;930;-43
2022/01/28 07:32:42;;;;;;;;;;;;;;;;;;7390991;19;935;-45
2022/01/28 07:35:11;;;;;;;;;;;;;;;;;;7390343;19;1853;-43
2022/01/28 07:37:38;;;;;;;;;;;;;;;;;;7390110;19;971;-44
2022/01/28 07:40:06;;;;;;;;;;;;;;;;;;7389598;19;951;-44
2022/01/28 07:42:35;;;;;;;;;;;;;;;;;;7389395;19;984;-49
2022/01/28 07:45:04;;;;;;;;;;;;;;;;;;7390544;19;970;-45
2022/01/28 07:47:31;;;;;;;;;;;;;;;;;;7390031;19;922;-43
2022/01/28 07:49:58;;;;;;;;;;;;;;;;;;7390766;19;899;-44
2022/01/28 07:52:25;;;;;;;;;;;;;;;;;;7390143;19;872;-43
2022/01/28 07:54:53;;;;;;;;;;;;;;;;;;7389276;19;958;-44
2022/01/28 07:57:20;;;;;;;;;;;;;;;;;;7387317;19;1846;-44
2022/01/28 07:59:47;;;;;;;;;;;;;;;;;;7390656;19;959;-45
2022/01/28 08:02:14;;;;;;;;;;;;;;;;;;7389423;19;906;-42
2022/01/28 08:04:42;;;;;;;;;;;;;;;;;;7388876;19;934;-46
2022/01/28 08:07:09;;;;;;;;;;;;;;;;;;7389513;19;868;-46
2022/01/28 08:09:36;;;;;;;;;;;;;;;;;;7389098;19;895;-45
2022/01/28 08:12:04;;;;;;;;;;;;;;;;;;7393927;19;1237;-45
2022/01/28 08:14:31;;;;;;;;;;;;;;;;;;7397281;19;934;-44
2022/01/28 08:16:59;;;;;;;;;;;;;;;;;;7394700;19;1845;-43
2022/01/28 08:19:26;;;;;;;;;;;;;;;;;;7397150;19;874;-44
2022/01/28 08:21:54;;;;;;;;;;;;;;;;;;7396259;19;1286;-47
2022/01/28 08:24:21;;;;;;;;;;;;;;;;;;7395859;19;867;-44
2022/01/28 08:26:50;;;;;;;;;;;;;;;;;;7396789;19;929;-50
2022/01/28 08:29:17;;;;;;;;;;;;;;;;;;7396338;19;855;-49
2022/01/28 08:31:45;;;;;;;;;;;;;;;;;;7396193;19;915;-44
2022/01/28 08:34:12;;;;;;;;;;;;;;;;;;7396343;19;942;-49
2022/01/28 08:36:40;;;;;;;;;;;;;;;;;;7394075;19;1853;-46
2022/01/28 08:39:09;;;;;;;;;;;;;;;;;;7396445;19;1044;-45
2022/01/28 08:41:39;;;;;;;;;;;;;;;;;;7395719;19;841;-54
2022/01/28 08:44:06;;;;;;;;;;;;;;;;;;7393580;19;1015;-44
2022/01/28 08:46:33;;;;;;;;;;;;;;;;;;7396404;19;934;-45
2022/01/28 08:49:03;;;;;;;;;;;;;;;;;;7396231;19;899;-47
2022/01/28 08:51:33;;;;;;;;;;;;;;;;;;7396307;19;978;-45
2022/01/28 08:54:01;;;;;;;;;;;;;;;;;;7395984;19;994;-48
2022/01/28 08:56:28;;;;;;;;;;;;;;;;;;7394298;19;1842;-45
2022/01/28 08:58:55;;;;;;;;;;;;;;;;;;7395199;19;851;-46
2022/01/28 09:01:23;;;;;;;;;;;;;;;;;;7395297;19;966;-44
2022/01/28 09:03:52;;;;;;;;;;;;;;;;;;7395968;19;966;-47
2022/01/28 09:06:19;;;;;;;;;;;;;;;;;;7395527;19;894;-45
2022/01/28 09:08:48;;;;;;;;;;;;;;;;;;7395432;19;930;-46
2022/01/28 09:13:49;;;;;;;;;;;;;;;;;;7394893;19;1058;-46
2022/01/28 09:16:17;;;;;;;;;;;;;;;;;;7394275;19;1850;-47
2022/01/28 09:18:45;;;;;;;;;;;;;;;;;;7395056;19;954;-48
2022/01/28 09:21:12;;;;;;;;;;;;;;;;;;7392851;19;945;-47
2022/01/28 09:23:39;;;;;;;;;;;;;;;;;;7391401;19;1169;-48
2022/01/28 09:26:07;;;;;;;;;;;;;;;;;;7394346;19;941;-50
2022/01/28 09:28:34;;;;;;;;;;;;;;;;;;7395465;19;892;-46
2022/01/28 09:31:01;;;;;;;;;;;;;;;;;;7394652;19;847;-45
2022/01/28 09:33:29;;;;;;;;;;;;;;;;;;7394491;19;1029;-53
2022/01/28 09:35:56;;;;;;;;;;;;;;;;;;7393658;19;1861;-44
2022/01/28 09:38:23;;;;;;;;;;;;;;;;;;7394084;19;1038;-51
2022/01/28 09:40:50;;;;;;;;;;;;;;;;;;7393545;19;954;-44
2022/01/28 09:43:18;;;;;;;;;;;;;;;;;;7392924;19;1000;-45
2022/01/28 09:45:48;;;;;;;;;;;;;;;;;;7393874;19;1017;-48
2022/01/28 09:48:18;;;;;;;;;;;;;;;;;;7394135;19;898;-45
2022/01/28 09:50:46;;;;;;;;;;;;;;;;;;7394208;19;942;-47
2022/01/28 09:53:14;;;;;;;;;;;;;;;;;;7394180;19;901;-45
2022/01/28 09:55:45;;;;;;;;;;;;;;;;;;7393513;19;1837;-49
2022/01/28 09:58:12;;;;;;;;;;;;;;;;;;7393651;19;2589;-45
2022/01/28 10:00:39;;;;;;;;;;;;;;;;;;7393214;19;2015;-53
2022/01/28 10:03:08;;;;;;;;;;;;;;;;;;7396967;19;2292;-45
2022/01/28 10:05:37;;;;;;;;;;;;;;;;;;7391785;19;2231;-51
2022/01/28 10:08:09;;;;;;;;;;;;;;;;;;7393507;19;2225;-45
2022/01/28 10:10:48;;;;;;;;;;;;;;;;;;7393068;19;2180;-45
2022/01/28 10:13:19;;;;;;;;;;;;;;;;;;7393220;19;2200;-50
2022/01/28 10:15:54;;;;;;;;;;;;;;;;;;7392510;19;1975;-54
2022/01/28 10:18:37;;;;;;;;;;;;;;;;;;7392666;19;2266;-45
2022/01/28 10:21:18;;;;;;;;;;;;;;;;;;7392363;19;2443;-44
2022/01/28 10:23:59;;;;;;;;;;;;;;;;;;7392276;19;2296;-44
2022/01/28 10:26:30;;;;;;;;;;;;;;;;;;7393272;19;2153;-49
2022/01/28 10:28:58;;;;;;;;;;;;;;;;;;7392296;19;2307;-45
2022/01/28 10:31:39;;;;;;;;;;;;;;;;;;7391385;19;2186;-45
2022/01/28 10:34:11;;;;;;;;;;;;;;;;;;7392805;19;2276;-53
2022/01/28 10:36:41;;;;;;;;;;;;;;;;;;7391007;19;2223;-45
2022/01/28 10:39:18;;;;;;;;;;;;;;;;;;7392308;19;2005;-47
2022/01/28 10:41:49;;;;;;;;;;;;;;;;;;7392372;19;2093;-46
2022/01/28 10:44:17;;;;;;;;;;;;;;;;;;7390982;19;2070;-45
2022/01/28 10:47:06;;;;;;;;;;;;;;;;;;7391716;19;2318;-45
2022/01/28 10:49:34;;;;;;;;;;;;;;;;;;7392466;19;1884;-46
2022/01/28 10:52:05;;;;;;;;;;;;;;;;;;7391921;19;1803;-45
2022/01/28 10:54:33;;;;;;;;;;;;;;;;;;7391997;19;2199;-46
2022/01/28 10:57:01;;;;;;;;;;;;;;;;;;7390567;19;2241;-46
2022/01/28 10:59:31;;;;;;;;;;;;;;;;;;7392459;19;2197;-52
2022/01/28 11:01:58;;;;;;;;;;;;;;;;;;7391225;19;1914;-45
2022/01/28 11:04:26;;;;;;;;;;;;;;;;;;7391695;19;2098;-46
2022/01/28 11:06:55;;;;;;;;;;;;;;;;;;7391206;19;2204;-45
2022/01/28 11:09:23;;;;;;;;;;;;;;;;;;7391618;19;2273;-53
2022/01/28 11:11:50;;;;;;;;;;;;;;;;;;7393700;19;2009;-46
2022/01/28 11:14:19;;;;;;;;;;;;;;;;;;7390969;19;2322;-45
2022/01/28 11:16:46;;;;;;;;;;;;;;;;;;7390198;19;2144;-45
2022/01/28 11:19:15;;;;;;;;;;;;;;;;;;7390451;19;2800;-45
2022/01/28 11:21:42;;;;;;;;;;;;;;;;;;7390110;19;2039;-44
2022/01/28 11:24:14;;;;;;;;;;;;;;;;;;7390380;19;2365;-45
2022/01/28 11:26:41;;;;;;;;;;;;;;;;;;7389962;19;2564;-46
2022/01/28 11:29:28;;;;;;;;;;;;;;;;;;7390448;19;1939;-45
2022/01/28 11:31:57;;;;;;;;;;;;;;;;;;7390229;19;2138;-46
2022/01/28 11:34:25;;;;;;;;;;;;;;;;;;7388907;19;2217;-45
2022/01/28 11:36:56;;;;;;;;;;;;;;;;;;7390063;19;2053;-45
2022/01/28 11:39:35;;;;;;;;;;;;;;;;;;7390102;19;2352;-45
2022/01/28 11:42:10;;;;;;;;;;;;;;;;;;7390247;19;2274;-46
2022/01/28 11:44:41;;;;;;;;;;;;;;;;;;7389469;19;1940;-44
2022/01/28 11:47:11;;;;;;;;;;;;;;;;;;7388034;19;2171;-46
2022/01/28 11:49:58;;;;;;;;;;;;;;;;;;7390087;19;2180;-51
2022/01/28 11:52:33;;;;;;;;;;;;;;;;;;7389609;19;1998;-48
2022/01/28 11:55:16;;;;;;;;;;;;;;;;;;7390257;19;2185;-45
2022/01/28 11:57:57;;;;;;;;;;;;;;;;;;7388325;19;2067;-44
2022/01/28 12:00:27;;;;;;;;;;;;;;;;;;7389781;19;2093;-48
2022/01/28 12:02:54;;;;;;;;;;;;;;;;;;7389881;19;2320;-44
2022/01/28 12:05:31;;;;;;;;;;;;;;;;;;7387554;19;2357;-46
2022/01/28 12:08:03;;;;;;;;;;;;;;;;;;7389510;19;2373;-45
2022/01/28 12:10:33;;;;;;;;;;;;;;;;;;7389818;19;2315;-45
2022/01/28 12:13:01;;;;;;;;;;;;;;;;;;7389333;19;2218;-45
2022/01/28 12:15:30;;;;;;;;;;;;;;;;;;7389093;19;1734;-46
2022/01/28 12:18:08;;;;;;;;;;;;;;;;;;7388069;19;2301;-46
2022/01/28 12:20:57;;;;;;;;;;;;;;;;;;7388665;19;2270;-45
2022/01/28 12:23:26;;;;;;;;;;;;;;;;;;7388931;19;2107;-46
2022/01/28 12:25:54;;;;;;;;;;;;;;;;;;7389186;19;2259;-44
2022/01/28 12:28:31;;;;;;;;;;;;;;;;;;7389351;19;2361;-43
2022/01/28 12:30:59;;;;;;;;;;;;;;;;;;7388849;19;2235;-46
2022/01/28 12:33:34;;;;;;;;;;;;;;;;;;7389112;19;2300;-46
2022/01/28 12:36:16;;;;;;;;;;;;;;;;;;7388676;19;1923;-47
2022/01/28 12:41:29;;;;;;;;;;;;;;;;;;7387092;19;2297;-45
2022/01/28 12:43:57;;;;;;;;;;;;;;;;;;7390289;19;2131;-45
2022/01/28 12:46:26;;;;;;;;;;;;;;;;;;7388258;19;2246;-45
2022/01/28 12:48:54;;;;;;;;;;;;;;;;;;7388555;19;1712;-45
2022/01/28 12:51:22;;;;;;;;;;;;;;;;;;7388755;19;2288;-45
2022/01/28 12:53:54;;;;;;;;;;;;;;;;;;7388023;19;2246;-44
2022/01/28 12:56:32;;;;;;;;;;;;;;;;;;7387664;19;2289;-44
2022/01/28 12:59:01;;;;;;;;;;;;;;;;;;7392052;19;2380;-47
2022/01/28 13:01:28;;;;;;;;;;;;;;;;;;7395670;19;2273;-44
2022/01/28 13:04:04;;;;;;;;;;;;;;;;;;7393267;19;2242;-47
2022/01/28 13:09:13;;;;;;;;;;;;;;;;;;7395612;19;2235;-45
2022/01/28 13:11:44;;;;;;;;;;;;;;;;;;7397827;19;2327;-45
2022/01/28 13:14:19;;;;;;;;;;;;;;;;;;7394250;19;2287;-45
2022/01/28 13:16:48;;;;;;;;;;;;;;;;;;7394085;19;2044;-45
2022/01/28 13:19:15;;;;;;;;;;;;;;;;;;7394759;19;2052;-45
2022/01/28 13:21:44;;;;;;;;;;;;;;;;;;7395345;19;2353;-46
2022/01/28 13:24:14;;;;;;;;;;;;;;;;;;7394332;19;2378;-45
2022/01/28 13:26:53;;;;;;;;;;;;;;;;;;7394841;19;2367;-45
2022/01/28 13:29:43;;;;;;;;;;;;;;;;;;7394915;19;2188;-46
2022/01/28 13:32:12;;;;;;;;;;;;;;;;;;7394484;19;2268;-42
2022/01/28 13:34:46;;;;;;;;;;;;;;;;;;7394599;19;2224;-45
2022/01/28 13:37:36;;;;;;;;;;;;;;;;;;7393280;19;2345;-48
2022/01/28 13:40:05;;;;;;;;;;;;;;;;;;7394984;19;2085;-46
2022/01/28 13:42:32;;;;;;;;;;;;;;;;;;7394087;19;2235;-48
2022/01/28 13:45:04;;;;;;;;;;;;;;;;;;7394322;19;2174;-45
2022/01/28 13:47:48;;;;;;;;;;;;;;;;;;7394644;19;2188;-46
2022/01/28 13:50:32;;;;;;;;;;;;;;;;;;7393297;19;2343;-48
2022/01/28 13:56:04;;;;;;;;;;;;;;;;;;7393836;19;2406;-44
2022/01/28 13:58:48;;;;;;;;;;;;;;;;;;7391698;19;2054;-44
2022/01/28 14:01:16;;;;;;;;;;;;;;;;;;7393211;19;2284;-50
2022/01/28 14:03:48;;;;;;;;;;;;;;;;;;7393237;19;1919;-48
2022/01/28 14:06:19;;;;;;;;;;;;;;;;;;7392124;19;1733;-50
2022/01/28 14:08:54;;;;;;;;;;;;;;;;;;7393989;19;2485;-45
2022/01/28 14:11:24;;;;;;;;;;;;;;;;;;7393886;19;2314;-48
2022/01/28 14:14:03;;;;;;;;;;;;;;;;;;7393229;19;2200;-42
2022/01/28 14:16:30;;;;;;;;;;;;;;;;;;7392829;19;2275;-46
2022/01/28 14:18:57;;;;;;;;;;;;;;;;;;7391077;19;2051;-49
2022/01/28 14:21:25;;;;;;;;;;;;;;;;;;7392717;19;2271;-42
2022/01/28 14:23:52;;;;;;;;;;;;;;;;;;7392845;19;2074;-46
2022/01/28 14:26:20;;;;;;;;;;;;;;;;;;7392264;19;2214;-45
2022/01/28 14:29:46;;;;;;;;;;;;;;;;;;7392654;19;2391;-43
2022/01/28 14:31:38;;;;;;;;;;;;;;;;;;7390879;19;1590;-44
2022/01/28 14:34:05;;;;;;;;;;;;;;;;;;7392945;19;2160;-45
2022/01/28 14:36:36;;;;;;;;;;;;;;;;;;7392839;19;2307;-47
2022/01/28 14:39:08;;;;;;;;;;;;;;;;;;7389962;19;2229;-46
2022/01/28 14:41:35;;;;;;;;;;;;;;;;;;7391999;19;2260;-46
2022/01/28 14:44:03;;;;;;;;;;;;;;;;;;7390682;19;2184;-44
2022/01/28 14:46:32;;;;;;;;;;;;;;;;;;7392346;19;2152;-47
2022/01/28 14:49:00;;;;;;;;;;;;;;;;;;7392250;19;2300;-47
2022/01/28 14:51:28;;;;;;;;;;;;;;;;;;7391759;19;2402;-47
2022/01/28 14:53:57;;;;;;;;;;;;;;;;;;7392152;19;2274;-47
2022/01/28 14:56:24;;;;;;;;;;;;;;;;;;7391703;19;2307;-51
2022/01/28 14:58:51;;;;;;;;;;;;;;;;;;7390250;19;2319;-45
2022/01/28 15:01:19;;;;;;;;;;;;;;;;;;7392010;19;2294;-48
2022/01/28 15:03:46;;;;;;;;;;;;;;;;;;7391328;19;2248;-46
2022/01/28 15:06:14;;;;;;;;;;;;;;;;;;7390285;19;2034;-53
2022/01/28 15:08:43;;;;;;;;;;;;;;;;;;7391156;19;2154;-45
2022/01/28 15:11:20;;;;;;;;;;;;;;;;;;7392171;19;1901;-48
2022/01/28 15:13:48;;;;;;;;;;;;;;;;;;7391152;19;2289;-53
2022/01/28 15:16:18;;;;;;;;;;;;;;;;;;7390663;19;1969;-48
2022/01/28 15:18:45;;;;;;;;;;;;;;;;;;7386954;19;1854;-46
2022/01/28 15:21:14;;;;;;;;;;;;;;;;;;7389440;19;2086;-46
2022/01/28 15:23:41;;;;;;;;;;;;;;;;;;7389476;19;2382;-45
2022/01/28 15:26:08;;;;;;;;;;;;;;;;;;7390837;19;2276;-45
2022/01/28 15:28:48;;;;;;;;;;;;;;;;;;7391193;19;2262;-47
2022/01/28 15:36:58;;;;;;;;;;;;;;;;;;7388804;19;2228;-45
2022/01/28 15:39:28;;;;;;;;;;;;;;;;;;7390701;19;2066;-45
2022/01/28 15:41:56;;;;;;;;;;;;;;;;;;7390449;19;2344;-50
2022/01/28 15:44:24;;;;;;;;;;;;;;;;;;7387271;19;2190;-44
2022/01/28 15:46:53;;;;;;;;;;;;;;;;;;7389799;19;2310;-45
2022/01/28 15:49:20;;;;;;;;;;;;;;;;;;7387921;19;2341;-46
2022/01/28 15:51:47;;;;;;;;;;;;;;;;;;7390216;19;2006;-45
2022/01/28 15:54:15;;;;;;;;;;;;;;;;;;7390411;19;2346;-52
2022/01/28 15:56:44;;;;;;;;;;;;;;;;;;7390755;19;2167;-47
2022/01/28 15:59:11;;;;;;;;;;;;;;;;;;7388068;19;2387;-45
2022/01/28 16:01:38;;;;;;;;;;;;;;;;;;7390046;19;2397;-49
2022/01/28 16:04:06;;;;;;;;;;;;;;;;;;7390518;19;2568;-45
2022/01/28 16:06:37;;;;;;;;;;;;;;;;;;7389575;19;2144;-45
2022/01/28 16:09:07;;;;;;;;;;;;;;;;;;7389508;19;1886;-48
2022/01/28 16:11:45;;;;;;;;;;;;;;;;;;7392400;19;2338;-46
2022/01/28 16:14:28;;;;;;;;;;;;;;;;;;7389142;19;1930;-46
2022/01/28 16:17:11;;;;;;;;;;;;;;;;;;7388890;19;2287;-45
2022/01/28 16:19:39;;;;;;;;;;;;;;;;;;7389864;19;2022;-47
2022/01/28 16:22:07;;;;;;;;;;;;;;;;;;7389227;19;2114;-45
2022/01/28 16:24:34;;;;;;;;;;;;;;;;;;7389132;19;2099;-43
2022/01/28 16:27:03;;;;;;;;;;;;;;;;;;7389400;19;2230;-48
2022/01/28 16:29:30;;;;;;;;;;;;;;;;;;7389533;19;1965;-45
2022/01/28 16:31:58;;;;;;;;;;;;;;;;;;7388726;19;1875;-50
2022/01/28 16:34:26;;;;;;;;;;;;;;;;;;7394460;19;2298;-53
2022/01/28 16:37:10;;;;;;;;;;;;;;;;;;7396286;19;1909;-50
2022/01/28 16:39:39;;;;;;;;;;;;;;;;;;7392207;19;2281;-48
2022/01/28 16:42:27;;;;;;;;;;;;;;;;;;7396266;19;2301;-48
2022/01/28 16:44:56;;;;;;;;;;;;;;;;;;7395736;19;2285;-46
2022/01/28 16:47:24;;;;;;;;;;;;;;;;;;7396620;19;2359;-46
2022/01/28 16:49:52;;;;;;;;;;;;;;;;;;7393756;19;2333;-49
2022/01/28 16:52:20;;;;;;;;;;;;;;;;;;7397404;19;2340;-45
2022/01/28 16:54:48;;;;;;;;;;;;;;;;;;7396122;19;2020;-46
2022/01/28 16:57:15;;;;;;;;;;;;;;;;;;7395771;19;1983;-50
2022/01/28 16:59:43;;;;;;;;;;;;;;;;;;7393392;19;2090;-48
2022/01/28 17:02:11;;;;;;;;;;;;;;;;;;7396032;19;2379;-48
2022/01/28 17:04:39;;;;;;;;;;;;;;;;;;7395128;19;2369;-48
2022/01/28 17:07:07;;;;;;;;;;;;;;;;;;7395370;19;2180;-50
2022/01/28 17:09:47;;;;;;;;;;;;;;;;;;7395298;19;2252;-48
2022/01/28 17:14:42;;;;;;;;;;;;;;;;;;7395616;19;2214;-53
2022/01/28 17:17:10;;;;;;;;;;;;;;;;;;7395151;19;2008;-45
2022/01/28 17:19:37;;;;;;;;;;;;;;;;;;7392241;19;2302;-49
2022/01/28 17:22:04;;;;;;;;;;;;;;;;;;7394377;19;2300;-53
2022/01/28 17:24:32;;;;;;;;;;;;;;;;;;7394168;19;2338;-45
2022/01/28 17:27:04;;;;;;;;;;;;;;;;;;7395166;19;2399;-47
2022/01/28 17:29:32;;;;;;;;;;;;;;;;;;7395017;19;2176;-53
2022/01/28 17:32:01;;;;;;;;;;;;;;;;;;7394638;19;2257;-53
2022/01/28 17:34:28;;;;;;;;;;;;;;;;;;7395400;19;2285;-49
2022/01/28 17:36:55;;;;;;;;;;;;;;;;;;7394283;19;2009;-47
2022/01/28 17:39:22;;;;;;;;;;;;;;;;;;7392091;19;2129;-51
2022/01/28 17:41:49;;;;;;;;;;;;;;;;;;7393923;19;2308;-51
2022/01/28 17:44:16;;;;;;;;;;;;;;;;;;7391211;19;1921;-45
2022/01/28 17:46:44;;;;;;;;;;;;;;;;;;7392320;19;2228;-47
2022/01/28 17:49:11;;;;;;;;;;;;;;;;;;7394314;19;2146;-45
2022/01/28 17:51:38;;;;;;;;;;;;;;;;;;7393898;19;2375;-46
2022/01/28 17:54:05;;;;;;;;;;;;;;;;;;7394146;19;2169;-48
2022/01/28 17:56:33;;;;;;;;;;;;;;;;;;7393604;19;2284;-47
2022/01/28 17:59:00;;;;;;;;;;;;;;;;;;7391354;19;2397;-51
2022/01/28 18:01:28;;;;;;;;;;;;;;;;;;7394172;19;2253;-51
2022/01/28 18:03:55;;;;;;;;;;;;;;;;;;7393740;19;2217;-47
2022/01/28 18:06:22;;;;;;;;;;;;;;;;;;7393382;19;2339;-48
2022/01/28 18:08:49;;;;;;;;;;;;;;;;;;7393021;19;1976;-45
2022/01/28 18:11:17;;;;;;;;;;;;;;;;;;7395550;19;2362;-48
2022/01/28 18:13:44;;;;;;;;;;;;;;;;;;7392725;19;1691;-49
2022/01/28 18:16:13;;;;;;;;;;;;;;;;;;7393169;19;2164;-49
2022/01/28 18:18:40;;;;;;;;;;;;;;;;;;7392452;19;2341;-46
2022/01/28 18:21:09;;;;;;;;;;;;;;;;;;7392909;19;2092;-54
2022/01/28 18:23:36;;;;;;;;;;;;;;;;;;7390541;19;6019;-46
2022/01/28 18:26:04;;;;;;;;;;;;;;;;;;7390540;19;2191;-48
2022/01/28 18:28:57;;;;;;;;;;;;;;;;;;7391979;19;2391;-45
2022/01/28 18:31:24;;;;;;;;;;;;;;;;;;7388075;19;2287;-49
2022/01/28 18:33:52;;;;;;;;;;;;;;;;;;7392426;19;2329;-46
2022/01/28 18:36:19;;;;;;;;;;;;;;;;;;7392386;19;2313;-50
2022/01/28 18:38:49;;;;;;;;;;;;;;;;;;7391997;19;2306;-48
2022/01/28 18:41:17;;;;;;;;;;;;;;;;;;7392655;19;2098;-45
2022/01/28 18:43:49;;;;;;;;;;;;;;;;;;7391265;19;2346;-46
2022/01/28 18:46:24;;;;;;;;;;;;;;;;;;7392177;19;2325;-52
2022/01/28 18:48:51;;;;;;;;;;;;;;;;;;7391023;19;2205;-48
2022/01/28 18:51:21;;;;;;;;;;;;;;;;;;7392048;19;2361;-51
2022/01/28 18:53:50;;;;;;;;;;;;;;;;;;7390040;19;2232;-53
2022/01/28 18:56:17;;;;;;;;;;;;;;;;;;7391501;19;2336;-48
2022/01/28 18:58:44;;;;;;;;;;;;;;;;;;7391101;19;2294;-50
2022/01/28 19:01:11;;;;;;;;;;;;;;;;;;7392015;19;2246;-51
2022/01/28 19:03:38;;;;;;;;;;;;;;;;;;7391906;19;2260;-50
2022/01/28 19:06:07;;;;;;;;;;;;;;;;;;7392128;19;2136;-43